Thursday, February 22, 2018, 12:12 PM EST
Back to Local

KMLT, Millinocket Municipal Airport

Location: Millinocket, ME, United States Lat: 45.65
Local Time: 12:12 PM EST (17:12 GMT) Lon: -68.7
Time Zone: US/Eastern Elev: 406 ft

Show me the last for .
Show Decoded

2018-02-22 11:53 METAR KMLT 221653Z AUTO 32005KT CLR A3065 RMK AO2 SLPNO $ =
2018-02-22 10:53 METAR KMLT 221553Z AUTO 30006KT 10SM CLR M03/M12 A3066 RMK AO2 SLP394 T10331117
                 =
2018-02-22 09:53 METAR KMLT 221453Z AUTO 29006KT 10SM CLR M04/M13 A3067 RMK AO2 SLP397 T10391128
                 51014 =
2018-02-22 08:53 METAR KMLT 221353Z AUTO 32006KT 10SM CLR M04/M12 A3065 RMK AO2 SLP389 T10441122
                 =
2018-02-22 07:53 METAR KMLT 221253Z AUTO 32006KT 10SM CLR M06/M12 A3065 RMK AO2 SLP390 T10561122
                 =
2018-02-22 06:53 METAR KMLT 221153Z AUTO 33007KT 10SM CLR M06/M12 A3063 RMK AO2 SLP381 T10561117
                 10006 21056 51024 =
2018-02-22 05:53 METAR KMLT 221053Z AUTO 29005KT 10SM CLR M05/M12 A3061 RMK AO2 SLP375 T10501122
                 =
2018-02-22 04:53 METAR KMLT 220953Z AUTO 32010KT 10SM CLR M04/M12 A3059 RMK AO2 SLP368 T10441117
                 =
2018-02-22 03:53 METAR KMLT 220853Z AUTO 33009KT 10SM CLR M03/M11 A3056 RMK AO2 SLP357 T10331111
                 51034 =
2018-02-22 02:53 METAR KMLT 220753Z AUTO 33011KT 10SM CLR M02/M11 A3053 RMK AO2 SLP348 T10221106
                 =
2018-02-22 01:53 METAR KMLT 220653Z AUTO 32011KT 10SM CLR M01/M08 A3050 RMK AO2 SLP336 T10111083
                 =
2018-02-22 00:53 METAR KMLT 220553Z AUTO 32009G15KT 10SM BKN036 01/M06 A3045 RMK AO2 SLP321
                 T00061056 10094 20000 51053 =
2018-02-21 23:53 METAR KMLT 220453Z AUTO 30010G17KT 10SM CLR 01/M06 A3041 RMK AO2 PRESRR SLP306
                 T00111061 401220011 =
2018-02-21 22:53 METAR KMLT 220353Z AUTO 30011G19KT 10SM CLR 02/M05 A3036 RMK AO2 PK WND
                 30026/0258 SLP289 T00221050 =
2018-02-21 21:53 METAR KMLT 220253Z AUTO 29016G25KT 10SM CLR 03/M04 A3029 RMK AO2 PK WND
                 29027/0215 SLP267 T00281044 51057 =
2018-02-21 20:53 METAR KMLT 220153Z AUTO 30016G23KT 10SM CLR 04/M03 A3026 RMK AO2 PK WND
                 31027/0130 SLP256 T00441028 =
2018-02-21 19:53 METAR KMLT 220053Z AUTO 30012G25KT 10SM CLR 07/M01 A3020 RMK AO2 PK WND
                 31028/0021 PRESRR SLP235 T00721006 =
2018-02-21 18:53 METAR KMLT 212353Z AUTO 29014G22KT 10SM FEW037 OVC100 09/04 A3012 RMK AO2 SLP209
                 60000 T00940039 10122 20044 53050 =
2018-02-21 17:53 METAR KMLT 212253Z AUTO 28011G26KT 10SM OVC100 11/07 A3006 RMK AO2 PK WND
                 31027/2228 PRESRR SLP186 T01110067 =
2018-02-21 16:53 METAR KMLT 212153Z AUTO 29007KT 10SM FEW031 OVC070 11/10 A3000 RMK AO2 RAE15
                 SLP164 P0000 T01110100 =
2018-02-21 15:53 METAR KMLT 212053Z AUTO 00000KT 4SM -RA BR BKN033 OVC042 07/06 A2997 RMK AO2
                 RAB13E22B48 SLP158 P0000 60000 T00670056 53012 =
2018-02-21 14:53 METAR KMLT 211953Z AUTO 12007KT 10SM BKN065 OVC080 08/07 A2991 RMK AO2 SLP136
                 T00830067 =
2018-02-21 13:53 METAR KMLT 211853Z AUTO VRB04KT 10SM CLR 09/07 A2991 RMK AO2 SLP136 T00890067 =
2018-02-21 12:53 METAR KMLT 211753Z AUTO 15006KT 10SM CLR 08/06 A2994 RMK AO2 PRESFR SLP146
                 T00830061 10083 20022 58033 =

Support USWX by starting your Amazon purchase here.